Tanamera — DH4571 — position and weather

sailwx.info

Track history (hours):
 
Tides and Currents Weather Stations Pressure Air Temp Water Temp Dewpoint Dewpoint Depression Visibility Wind Speed Wind Dir Waves Ship Positions

Tanamera

Last reported at 2017-Dec-02 14:18 UTC. Time now 2018-Jan-24 09:28 UTC.
Position N 17°05' W 061°54'.
Warning: this ship's position is 52 days out of date.

Length 10 m.

Type: Sailing vessel. MMSI: 211598890.

Date/timePositionNaut miles runAvg speedWind from/ knotsBaromVisibWave heightAir tempDewpointWater temp
2017-Dec-02 14:18N 17°05' W 061°54'0 0.5
2017-Dec-02 14:00N 17°05' W 061°54'2 3.5
2017-Dec-02 13:30N 17°06' W 061°55'2 4.8
2017-Dec-02 13:00N 17°08' W 061°53'0 0.0
2017-Dec-02 01:27N 17°08' W 061°53'0 0.0
2017-Dec-01 18:57N 17°08' W 061°53'0 0.0
2017-Dec-01 18:30N 17°08' W 061°53'0 0.0
2017-Dec-01 18:00N 17°08' W 061°53'0 0.0
2017-Dec-01 17:30N 17°08' W 061°53'0 0.0
2017-Dec-01 16:57N 17°08' W 061°53'0 0.0
2017-Dec-01 16:30N 17°08' W 061°53'0 0.0
2017-Dec-01 16:00N 17°08' W 061°53'0 0.0
2017-Dec-01 15:30N 17°08' W 061°53'2 3.0
2017-Dec-01 15:00N 17°09' W 061°53'2 5.0
2017-Dec-01 14:30N 17°10' W 061°51'3 5.2
2017-Dec-01 14:00N 17°11' W 061°49'2 4.8
2017-Dec-01 13:30N 17°09' W 061°47'2 4.1
2017-Dec-01 13:00N 17°08' W 061°45'  
2017-Nov-28 22:29N 17°09' W 061°44'0 0.0
2017-Nov-28 20:09N 17°09' W 061°44'0 0.0
2017-Nov-28 20:00N 17°09' W 061°44'0 0.0
2017-Nov-28 19:30N 17°09' W 061°44'0 0.0
2017-Nov-28 19:00N 17°09' W 061°44'0 0.0
2017-Nov-28 18:30N 17°09' W 061°44'0 0.0
2017-Nov-28 18:00N 17°09' W 061°44'0 0.0
2017-Nov-28 17:30N 17°09' W 061°44'0 0.0
2017-Nov-28 17:00N 17°09' W 061°44'0 0.0
2017-Nov-28 16:30N 17°09' W 061°44'0 0.0
2017-Nov-28 16:00N 17°09' W 061°44'0 0.0
2017-Nov-28 15:00N 17°09' W 061°44'0 0.0
2017-Nov-28 14:30N 17°09' W 061°44'1 3.0
2017-Nov-28 14:00N 17°08' W 061°45'1 1.9
2017-Nov-28 13:29N 17°09' W 061°46'0 0.0
2017-Nov-28 02:33N 17°09' W 061°46'0 0.0
2017-Nov-28 02:30N 17°09' W 061°46'0 0.0
2017-Nov-28 02:00N 17°09' W 061°46'0 0.0
2017-Nov-27 17:52N 17°09' W 061°46'0 0.0
2017-Nov-27 17:28N 17°09' W 061°46'0 0.0
2017-Nov-27 16:58N 17°09' W 061°46'0 0.0
2017-Nov-27 16:28N 17°09' W 061°46'1 3.2
2017-Nov-27 16:00N 17°10' W 061°47'2 4.3
2017-Nov-27 15:30N 17°11' W 061°49'2 5.0
2017-Nov-27 15:00N 17°10' W 061°52'3 5.0
2017-Nov-27 14:30N 17°09' W 061°54'3 5.2
2017-Nov-27 14:00N 17°07' W 061°55'2 4.3
2017-Nov-27 13:30N 17°05' W 061°55'  
Track history (hours):
 
Tides and Currents Weather Stations Pressure Air Temp Water Temp Dewpoint Dewpoint Depression Visibility Wind Speed Wind Dir Waves Ship Positions

Tanamera

Last reported at 2017-Dec-02 14:18 UTC. Time now 2018-Jan-24 09:28 UTC.
Position N 17°05' W 061°54'.
Warning: this ship's position is 52 days out of date.

Length 10 m.

Type: Sailing vessel. MMSI: 211598890.

Date/timePositionNaut miles runAvg speedWind from/ knotsBaromVisibWave heightAir tempDewpointWater temp
2017-Dec-02 14:18N 17°05' W 061°54'0 0.5
2017-Dec-02 14:00N 17°05' W 061°54'2 3.5
2017-Dec-02 13:30N 17°06' W 061°55'2 4.8
2017-Dec-02 13:00N 17°08' W 061°53'0 0.0
2017-Dec-02 01:27N 17°08' W 061°53'0 0.0
2017-Dec-01 18:57N 17°08' W 061°53'0 0.0
2017-Dec-01 18:30N 17°08' W 061°53'0 0.0
2017-Dec-01 18:00N 17°08' W 061°53'0 0.0
2017-Dec-01 17:30N 17°08' W 061°53'0 0.0
2017-Dec-01 16:57N 17°08' W 061°53'0 0.0
2017-Dec-01 16:30N 17°08' W 061°53'0 0.0
2017-Dec-01 16:00N 17°08' W 061°53'0 0.0
2017-Dec-01 15:30N 17°08' W 061°53'2 3.0
2017-Dec-01 15:00N 17°09' W 061°53'2 5.0
2017-Dec-01 14:30N 17°10' W 061°51'3 5.2
2017-Dec-01 14:00N 17°11' W 061°49'2 4.8
2017-Dec-01 13:30N 17°09' W 061°47'2 4.1
2017-Dec-01 13:00N 17°08' W 061°45'  
2017-Nov-28 22:29N 17°09' W 061°44'0 0.0
2017-Nov-28 20:09N 17°09' W 061°44'0 0.0
2017-Nov-28 20:00N 17°09' W 061°44'0 0.0
2017-Nov-28 19:30N 17°09' W 061°44'0 0.0
2017-Nov-28 19:00N 17°09' W 061°44'0 0.0
2017-Nov-28 18:30N 17°09' W 061°44'0 0.0
2017-Nov-28 18:00N 17°09' W 061°44'0 0.0
2017-Nov-28 17:30N 17°09' W 061°44'0 0.0
2017-Nov-28 17:00N 17°09' W 061°44'0 0.0
2017-Nov-28 16:30N 17°09' W 061°44'0 0.0
2017-Nov-28 16:00N 17°09' W 061°44'0 0.0
2017-Nov-28 15:00N 17°09' W 061°44'0 0.0
2017-Nov-28 14:30N 17°09' W 061°44'1 3.0
2017-Nov-28 14:00N 17°08' W 061°45'1 1.9
2017-Nov-28 13:29N 17°09' W 061°46'0 0.0
2017-Nov-28 02:33N 17°09' W 061°46'0 0.0
2017-Nov-28 02:30N 17°09' W 061°46'0 0.0
2017-Nov-28 02:00N 17°09' W 061°46'0 0.0
2017-Nov-27 17:52N 17°09' W 061°46'0 0.0
2017-Nov-27 17:28N 17°09' W 061°46'0 0.0
2017-Nov-27 16:58N 17°09' W 061°46'0 0.0
2017-Nov-27 16:28N 17°09' W 061°46'1 3.2
2017-Nov-27 16:00N 17°10' W 061°47'2 4.3
2017-Nov-27 15:30N 17°11' W 061°49'2 5.0
2017-Nov-27 15:00N 17°10' W 061°52'3 5.0
2017-Nov-27 14:30N 17°09' W 061°54'3 5.2
2017-Nov-27 14:00N 17°07' W 061°55'2 4.3
2017-Nov-27 13:30N 17°05' W 061°55'  

Dump ship's entire track history